createdAt,value
2023-03-24T00:01:19.002Z,11.40
2023-03-24T00:03:48.841Z,11.28
2023-03-24T00:06:18.854Z,11.40
2023-03-24T00:08:48.333Z,11.39
2023-03-24T00:11:18.804Z,11.37
2023-03-24T00:13:50.198Z,11.42
2023-03-24T00:16:20.226Z,11.57
2023-03-24T00:18:53.235Z,11.59
2023-03-24T00:21:27.001Z,11.52
2023-03-24T00:23:56.085Z,11.43
2023-03-24T00:26:25.220Z,11.43
2023-03-24T00:28:54.540Z,11.43
2023-03-24T00:31:24.587Z,11.49
2023-03-24T00:33:53.891Z,11.56
2023-03-24T00:36:26.096Z,11.59
2023-03-24T00:38:55.443Z,11.65
2023-03-24T00:41:26.820Z,11.70
2023-03-24T00:43:58.480Z,11.72
2023-03-24T00:46:29.220Z,11.61
2023-03-24T00:49:02.757Z,11.61
2023-03-24T00:51:37.231Z,11.65
2023-03-24T00:54:05.456Z,11.51
2023-03-24T00:56:37.825Z,11.30
2023-03-24T00:59:06.335Z,11.16
2023-03-24T01:01:36.529Z,11.05
2023-03-24T01:04:06.156Z,10.97
2023-03-24T01:06:38.677Z,10.87
2023-03-24T01:09:07.320Z,10.84
2023-03-24T01:11:38.682Z,10.68
2023-03-24T01:14:07.940Z,10.61
2023-03-24T01:16:36.061Z,10.50
2023-03-24T01:19:04.614Z,10.47
2023-03-24T01:21:35.028Z,10.49
2023-03-24T01:24:05.123Z,10.43
2023-03-24T01:26:33.347Z,10.36
2023-03-24T01:29:01.150Z,10.23
2023-03-24T01:31:29.079Z,10.18
2023-03-24T01:33:56.802Z,10.11
2023-03-24T01:36:24.793Z,10.10
2023-03-24T01:38:52.471Z,10.04
2023-03-24T01:41:20.442Z,9.98
2023-03-24T01:43:48.057Z,9.85
2023-03-24T01:46:18.388Z,9.71
2023-03-24T01:48:52.168Z,9.65
2023-03-24T01:51:34.755Z,9.51
2023-03-24T01:54:09.943Z,9.50
2023-03-24T01:56:43.003Z,9.42
2023-03-24T01:59:14.382Z,9.30
2023-03-24T02:02:03.796Z,9.19
2023-03-24T02:04:48.493Z,9.08
2023-03-24T02:07:34.027Z,9.00
2023-03-24T02:10:06.856Z,8.87
2023-03-24T02:12:35.432Z,8.89
2023-03-24T02:15:06.634Z,9.05
2023-03-24T02:17:48.125Z,8.94
2023-03-24T02:20:36.911Z,8.78
2023-03-24T02:23:30.607Z,8.74
2023-03-24T02:26:23.472Z,8.82
2023-03-24T02:29:09.845Z,8.82
2023-03-24T02:32:09.257Z,8.79
2023-03-24T02:34:46.054Z,8.54
2023-03-24T02:37:27.429Z,8.44
2023-03-24T02:40:08.364Z,8.43
2023-03-24T02:42:49.010Z,8.56
2023-03-24T02:45:19.664Z,8.69
2023-03-24T02:48:10.789Z,8.66
2023-03-24T02:50:45.891Z,8.57
2023-03-24T02:53:27.973Z,8.57
2023-03-24T02:56:33.801Z,8.49
2023-03-24T02:59:19.740Z,8.50
2023-03-24T03:01:58.986Z,8.54
2023-03-24T03:04:58.169Z,8.40
2023-03-24T03:07:30.085Z,8.29
2023-03-24T03:10:21.840Z,8.21
2023-03-24T03:12:54.609Z,8.14
2023-03-24T03:15:37.835Z,8.07
2023-03-24T03:18:16.640Z,8.06
2023-03-24T03:20:53.234Z,7.97
2023-03-24T03:23:33.690Z,7.90
2023-03-24T03:26:06.268Z,7.89
2023-03-24T03:28:38.527Z,7.87
2023-03-24T03:31:17.022Z,7.80
2023-03-24T03:33:58.380Z,7.80
2023-03-24T03:36:47.576Z,7.88
2023-03-24T03:39:25.660Z,7.84
2023-03-24T03:41:53.792Z,7.84
2023-03-24T03:44:21.755Z,7.77
2023-03-24T03:46:49.625Z,7.83
2023-03-24T03:49:25.836Z,7.81
2023-03-24T03:51:55.799Z,7.81
2023-03-24T03:54:25.949Z,7.77
2023-03-24T03:56:54.071Z,7.77
2023-03-24T03:59:35.676Z,7.76
2023-03-24T04:02:40.291Z,7.74
2023-03-24T04:05:14.592Z,7.71
2023-03-24T04:08:17.030Z,7.94
2023-03-24T04:11:11.379Z,8.04
2023-03-24T04:14:12.758Z,7.95
2023-03-24T04:17:27.888Z,7.87
2023-03-24T04:19:55.882Z,7.92
2023-03-24T04:22:44.096Z,7.97
2023-03-24T04:25:28.273Z,8.01
2023-03-24T04:28:09.746Z,8.06
2023-03-24T04:30:47.763Z,7.98
2023-03-24T04:33:28.929Z,8.01
2023-03-24T04:36:06.681Z,8.08
2023-03-24T04:38:53.328Z,8.07
2023-03-24T04:41:32.827Z,8.02
2023-03-24T04:44:12.699Z,7.97
2023-03-24T04:46:58.148Z,8.09
2023-03-24T04:49:27.301Z,8.09
2023-03-24T04:51:55.581Z,8.10
2023-03-24T04:54:28.136Z,8.20
2023-03-24T04:57:04.201Z,8.24
2023-03-24T04:59:41.103Z,8.27
2023-03-24T05:02:09.646Z,8.37
2023-03-24T05:04:59.996Z,8.49
2023-03-24T05:07:34.287Z,8.75
2023-03-24T05:10:06.536Z,8.76
2023-03-24T05:12:40.945Z,8.98
2023-03-24T05:15:32.145Z,9.23
2023-03-24T05:18:15.725Z,9.49
2023-03-24T05:20:43.647Z,9.76
2023-03-24T05:23:18.075Z,10.28
2023-03-24T05:25:48.071Z,10.49
2023-03-24T05:28:17.370Z,10.68
2023-03-24T05:30:45.334Z,10.88
2023-03-24T05:33:24.438Z,10.94
2023-03-24T05:35:52.984Z,11.10
2023-03-24T05:38:21.025Z,10.93
2023-03-24T05:40:58.301Z,11.00
2023-03-24T05:43:29.532Z,11.00
2023-03-24T05:46:15.405Z,11.08
2023-03-24T05:48:45.057Z,11.14
2023-03-24T05:51:18.216Z,11.43
2023-03-24T05:53:47.287Z,11.60
2023-03-24T05:56:18.797Z,11.60
2023-03-24T05:59:01.220Z,11.77
2023-03-24T06:01:58.654Z,12.03
2023-03-24T06:04:46.660Z,12.01
2023-03-24T06:07:17.930Z,12.15
2023-03-24T06:09:47.376Z,12.06
2023-03-24T06:12:16.598Z,12.16
2023-03-24T06:14:54.104Z,12.35
2023-03-24T06:17:24.600Z,12.32
2023-03-24T06:20:02.881Z,12.47
2023-03-24T06:22:50.367Z,12.51
2023-03-24T06:25:26.338Z,12.53
2023-03-24T06:28:14.298Z,12.64
2023-03-24T06:30:46.740Z,12.83
2023-03-24T06:33:22.206Z,12.94
2023-03-24T06:35:52.132Z,12.89
2023-03-24T06:38:20.650Z,13.06
2023-03-24T06:40:48.208Z,13.05
2023-03-24T06:43:16.514Z,13.02
2023-03-24T06:45:45.987Z,13.25
2023-03-24T06:48:23.925Z,13.32
2023-03-24T06:50:56.351Z,13.37
2023-03-24T06:53:24.288Z,13.38
2023-03-24T06:55:52.332Z,13.42
2023-03-24T06:58:22.836Z,13.41
2023-03-24T07:01:04.847Z,13.47
2023-03-24T07:03:56.188Z,13.47
2023-03-24T07:06:38.128Z,13.38
2023-03-24T07:09:15.526Z,13.48
2023-03-24T07:11:43.077Z,13.58
2023-03-24T07:14:11.174Z,13.62
2023-03-24T07:16:40.381Z,13.56
2023-03-24T07:19:27.651Z,13.64
2023-03-24T07:22:18.076Z,13.80
2023-03-24T07:25:06.492Z,14.02
2023-03-24T07:30:16.425Z,13.71
2023-03-24T07:32:45.581Z,13.64
2023-03-24T07:35:13.669Z,13.64
2023-03-24T07:37:41.860Z,13.70
2023-03-24T07:40:14.838Z,13.64
2023-03-24T07:42:43.796Z,13.77
2023-03-24T07:45:32.057Z,13.63
2023-03-24T07:48:03.964Z,13.68
2023-03-24T07:50:36.241Z,13.58
2023-03-24T07:53:11.354Z,13.60
2023-03-24T07:55:39.493Z,13.56
2023-03-24T07:58:15.096Z,13.87
2023-03-24T08:00:58.878Z,14.14
2023-03-24T08:03:40.860Z,14.10
2023-03-24T08:06:17.891Z,14.09
2023-03-24T08:08:51.453Z,14.10
2023-03-24T08:11:19.260Z,14.19
2023-03-24T08:13:47.084Z,14.22
2023-03-24T08:16:14.994Z,14.09
2023-03-24T08:18:42.786Z,14.06
2023-03-24T08:21:10.550Z,14.21
2023-03-24T08:23:38.263Z,14.15
2023-03-24T08:26:07.288Z,14.14
2023-03-24T08:28:34.928Z,13.97
2023-03-24T08:31:02.922Z,13.79
2023-03-24T08:33:30.792Z,13.86
2023-03-24T08:36:00.866Z,13.99
2023-03-24T08:38:32.495Z,14.02
2023-03-24T08:41:06.639Z,14.43
2023-03-24T08:43:36.572Z,14.81
2023-03-24T08:46:09.651Z,14.97
2023-03-24T08:48:41.133Z,14.82
2023-03-24T08:51:15.033Z,14.71
2023-03-24T08:53:43.564Z,14.74
2023-03-24T08:56:11.924Z,14.73
2023-03-24T08:58:39.570Z,14.67
2023-03-24T09:01:07.584Z,14.60
2023-03-24T09:03:36.019Z,14.43
2023-03-24T09:06:03.978Z,14.33
2023-03-24T09:08:31.688Z,14.27
2023-03-24T09:10:59.664Z,14.07
2023-03-24T09:13:27.640Z,14.01
2023-03-24T09:16:00.396Z,14.06
2023-03-24T09:18:28.803Z,14.31
2023-03-24T09:20:56.858Z,14.32
2023-03-24T09:23:24.658Z,14.41
2023-03-24T09:25:56.370Z,14.52
2023-03-24T09:28:24.273Z,14.71
2023-03-24T09:30:58.407Z,15.04
2023-03-24T09:33:26.479Z,15.43
2023-03-24T09:36:00.376Z,16.19
2023-03-24T09:38:29.668Z,17.32
2023-03-24T09:41:02.723Z,18.75
2023-03-24T09:43:59.535Z,18.90
2023-03-24T09:46:47.159Z,19.28
2023-03-24T09:49:23.440Z,19.69
2023-03-24T09:51:56.666Z,19.59
2023-03-24T09:54:31.391Z,19.76
2023-03-24T09:56:59.882Z,20.14
2023-03-24T09:59:30.275Z,20.41
2023-03-24T10:01:58.732Z,20.36
2023-03-24T10:04:29.045Z,20.27
2023-03-24T10:07:10.008Z,19.92
2023-03-24T10:09:38.047Z,19.76
2023-03-24T10:12:38.796Z,19.73
2023-03-24T10:15:37.824Z,20.07
2023-03-24T10:18:30.720Z,20.37
2023-03-24T10:21:09.008Z,20.44
2023-03-24T10:24:13.269Z,20.18
2023-03-24T10:26:56.779Z,19.81
2023-03-24T10:29:36.188Z,19.37
2023-03-24T10:32:09.547Z,19.06
2023-03-24T10:34:39.189Z,19.19
2023-03-24T10:37:07.404Z,18.55
2023-03-24T10:39:44.091Z,18.34
2023-03-24T10:42:24.267Z,18.00
2023-03-24T10:44:52.812Z,17.86
2023-03-24T10:47:27.969Z,17.96
2023-03-24T10:50:11.972Z,18.13
2023-03-24T10:52:43.814Z,18.13
2023-03-24T10:55:19.028Z,18.06
2023-03-24T10:57:53.663Z,18.13
2023-03-24T11:00:27.118Z,18.09
2023-03-24T11:03:08.548Z,18.38
2023-03-24T11:05:39.655Z,18.36
2023-03-24T11:08:22.095Z,18.24
2023-03-24T11:10:49.977Z,17.87
2023-03-24T11:13:31.736Z,17.65
2023-03-24T11:16:10.462Z,17.63
2023-03-24T11:18:38.486Z,17.66
2023-03-24T11:21:08.213Z,17.47
2023-03-24T11:23:42.860Z,17.39
2023-03-24T11:26:22.783Z,17.30
2023-03-24T11:29:00.215Z,17.37
2023-03-24T11:31:31.171Z,17.14
2023-03-24T11:34:15.234Z,17.09
2023-03-24T11:36:51.654Z,17.18
2023-03-24T11:39:26.778Z,17.20
2023-03-24T11:42:16.904Z,17.08
2023-03-24T11:44:52.183Z,17.11
2023-03-24T11:47:30.755Z,17.08
2023-03-24T11:50:06.803Z,17.15
2023-03-24T11:52:55.731Z,17.32
2023-03-24T11:55:48.269Z,17.54
2023-03-24T11:58:47.328Z,17.71
2023-03-24T12:01:23.146Z,17.57
2023-03-24T12:04:06.145Z,17.23
2023-03-24T12:06:48.863Z,17.23
2023-03-24T12:09:37.466Z,17.22
2023-03-24T12:12:33.568Z,17.33
2023-03-24T12:15:27.961Z,17.49
2023-03-24T12:18:24.532Z,17.62
2023-03-24T12:20:58.430Z,17.68
2023-03-24T12:23:26.310Z,17.48
2023-03-24T12:26:10.388Z,17.86
2023-03-24T12:28:54.281Z,18.01
2023-03-24T12:31:37.151Z,18.33
2023-03-24T12:34:36.522Z,18.65
2023-03-24T12:37:11.133Z,18.88
2023-03-24T12:40:21.942Z,19.00
2023-03-24T12:43:15.508Z,19.31
2023-03-24T12:45:53.525Z,19.63
2023-03-24T12:48:31.327Z,19.78
2023-03-24T12:51:35.794Z,19.87
2023-03-24T12:54:21.184Z,19.87
2023-03-24T12:57:13.107Z,20.13
2023-03-24T12:59:59.496Z,20.10
2023-03-24T13:03:01.584Z,19.91
2023-03-24T13:05:32.717Z,19.70
2023-03-24T13:08:05.239Z,19.63
2023-03-24T13:10:40.805Z,19.64
2023-03-24T13:13:18.275Z,19.69
2023-03-24T13:15:56.240Z,19.70
2023-03-24T13:18:44.322Z,19.94
2023-03-24T13:21:16.595Z,19.83
2023-03-24T13:24:02.101Z,19.81
2023-03-24T13:27:05.612Z,19.76
2023-03-24T13:30:01.089Z,19.70
2023-03-24T13:32:31.708Z,19.76
2023-03-24T13:35:21.712Z,19.87
2023-03-24T13:37:54.390Z,19.82
2023-03-24T13:40:26.174Z,19.87
2023-03-24T13:43:00.552Z,19.92
2023-03-24T13:45:41.368Z,20.07
2023-03-24T13:48:12.497Z,20.03
2023-03-24T13:51:02.989Z,19.94
2023-03-24T13:53:36.070Z,19.92
2023-03-24T13:56:05.896Z,19.97
2023-03-24T13:59:07.908Z,19.93
2023-03-24T14:01:44.120Z,20.01
2023-03-24T14:04:42.924Z,20.10
2023-03-24T14:07:40.632Z,20.09
2023-03-24T14:10:50.182Z,20.27
2023-03-24T14:13:17.704Z,20.22
2023-03-24T14:16:34.287Z,20.25
2023-03-24T14:19:21.054Z,20.14
2023-03-24T14:22:08.515Z,20.05
2023-03-24T14:24:37.094Z,20.05
2023-03-24T14:27:42.763Z,20.14
2023-03-24T14:30:16.839Z,20.01
2023-03-24T14:32:48.970Z,19.97
2023-03-24T14:35:44.686Z,20.10
2023-03-24T14:38:15.603Z,20.17
2023-03-24T14:40:46.442Z,20.16
2023-03-24T14:43:28.568Z,20.06
2023-03-24T14:46:23.485Z,20.07
2023-03-24T14:49:26.912Z,20.10
2023-03-24T14:52:00.940Z,19.97
2023-03-24T14:54:56.156Z,19.99
2023-03-24T14:57:30.923Z,20.05
2023-03-24T15:00:07.127Z,20.05
2023-03-24T15:03:02.812Z,19.90
2023-03-24T15:05:31.995Z,19.79
2023-03-24T15:08:21.786Z,19.80
2023-03-24T15:10:56.534Z,19.74
2023-03-24T15:13:32.927Z,19.58
2023-03-24T15:16:03.831Z,19.47
2023-03-24T15:18:31.518Z,19.42
2023-03-24T15:20:59.430Z,19.49
2023-03-24T15:23:28.402Z,19.34
2023-03-24T15:25:57.478Z,19.28
2023-03-24T15:28:27.936Z,19.33
2023-03-24T15:30:59.431Z,19.20
2023-03-24T15:33:31.005Z,19.20
2023-03-24T15:36:00.945Z,19.15
2023-03-24T15:38:33.548Z,18.96
2023-03-24T15:41:05.029Z,18.86
2023-03-24T15:43:32.676Z,18.87
2023-03-24T15:46:11.865Z,18.78
2023-03-24T15:48:40.678Z,18.75
2023-03-24T15:51:11.669Z,18.69
2023-03-24T15:53:44.970Z,18.68
2023-03-24T15:56:12.823Z,18.61
2023-03-24T15:58:50.369Z,18.55
2023-03-24T16:01:36.609Z,18.57
2023-03-24T16:04:14.364Z,18.50
2023-03-24T16:06:53.729Z,18.38
2023-03-24T16:09:27.398Z,18.40
2023-03-24T16:11:55.619Z,18.29
2023-03-24T16:14:32.442Z,18.32
2023-03-24T16:17:05.175Z,18.24
2023-03-24T16:19:33.058Z,18.19
2023-03-24T16:22:01.009Z,18.05
2023-03-24T16:24:28.547Z,17.93
2023-03-24T16:26:56.364Z,17.84
2023-03-24T16:29:24.703Z,17.94
2023-03-24T16:31:57.075Z,17.71
2023-03-24T16:34:24.973Z,17.69
2023-03-24T16:36:54.455Z,17.60
2023-03-24T16:39:24.940Z,17.57
2023-03-24T16:41:53.166Z,17.59
2023-03-24T16:44:21.516Z,17.49
2023-03-24T16:46:53.796Z,17.50
2023-03-24T16:49:23.594Z,17.43
2023-03-24T16:51:52.983Z,17.44
2023-03-24T16:54:21.368Z,17.39
2023-03-24T16:56:49.588Z,17.26
2023-03-24T16:59:17.273Z,17.23
2023-03-24T17:01:46.159Z,17.15
2023-03-24T17:04:19.204Z,17.11
2023-03-24T17:06:52.832Z,17.09
2023-03-24T17:09:21.165Z,16.94
2023-03-24T17:11:52.197Z,16.90
2023-03-24T17:14:19.935Z,16.88
2023-03-24T17:16:50.151Z,16.86
2023-03-24T17:19:22.982Z,16.74
2023-03-24T17:21:56.754Z,16.69
2023-03-24T17:24:25.629Z,16.64
2023-03-24T17:26:53.545Z,16.51
2023-03-24T17:29:22.796Z,16.34
2023-03-24T17:31:50.889Z,16.23
2023-03-24T17:34:22.015Z,16.15
2023-03-24T17:36:51.772Z,15.96
2023-03-24T17:39:21.182Z,15.86
2023-03-24T17:41:49.424Z,15.53
2023-03-24T17:44:17.153Z,15.40
2023-03-24T17:46:45.367Z,15.21
2023-03-24T17:49:12.961Z,15.09
2023-03-24T17:51:40.883Z,14.94
2023-03-24T17:54:11.751Z,15.04
2023-03-24T17:56:40.079Z,14.81
2023-03-24T17:59:08.180Z,14.63
2023-03-24T18:01:39.241Z,14.53
2023-03-24T18:04:07.432Z,14.52
2023-03-24T18:06:35.449Z,14.39
2023-03-24T18:09:03.100Z,14.31
2023-03-24T18:11:30.945Z,14.30
2023-03-24T18:13:58.494Z,14.26
2023-03-24T18:16:29.865Z,14.14
2023-03-24T18:18:58.343Z,14.20
2023-03-24T18:21:26.156Z,14.15
2023-03-24T18:23:53.841Z,14.03
2023-03-24T18:26:22.331Z,13.99
2023-03-24T18:28:49.947Z,13.97
2023-03-24T18:31:23.279Z,13.87
2023-03-24T18:33:51.991Z,13.83
2023-03-24T18:36:26.370Z,13.79
2023-03-24T18:38:58.514Z,13.78
2023-03-24T18:41:28.369Z,13.78
2023-03-24T18:43:58.031Z,13.65
2023-03-24T18:46:27.226Z,13.63
2023-03-24T18:48:55.336Z,13.53
2023-03-24T18:51:27.631Z,13.50
2023-03-24T18:53:55.740Z,13.41
2023-03-24T18:56:24.668Z,13.38
2023-03-24T18:58:52.498Z,13.44
2023-03-24T19:01:23.025Z,13.38
2023-03-24T19:03:52.693Z,13.31
2023-03-24T19:06:21.058Z,13.48
2023-03-24T19:08:52.673Z,13.34
2023-03-24T19:11:20.807Z,13.29
2023-03-24T19:13:50.607Z,13.26
2023-03-24T19:16:19.961Z,13.20
2023-03-24T19:18:48.617Z,13.20
2023-03-24T19:21:17.315Z,13.12
2023-03-24T19:23:46.811Z,13.23
2023-03-24T19:26:20.459Z,13.18
2023-03-24T19:28:48.537Z,13.09
2023-03-24T19:31:18.748Z,13.03
2023-03-24T19:33:47.539Z,13.04
2023-03-24T19:36:15.649Z,13.11
2023-03-24T19:38:44.186Z,13.12
2023-03-24T19:41:14.559Z,13.05
2023-03-24T19:43:42.561Z,13.16
2023-03-24T19:46:10.676Z,13.07
2023-03-24T19:48:38.776Z,13.06
2023-03-24T19:51:06.853Z,13.08
2023-03-24T19:53:34.533Z,13.05
2023-03-24T19:56:03.311Z,13.08
2023-03-24T19:58:31.108Z,13.07
2023-03-24T20:00:59.200Z,13.14
2023-03-24T20:03:28.938Z,13.03
2023-03-24T20:06:02.349Z,12.88
2023-03-24T20:08:29.940Z,12.85
2023-03-24T20:10:57.734Z,13.13
2023-03-24T20:13:25.843Z,13.07
2023-03-24T20:15:54.078Z,12.91
2023-03-24T20:18:21.681Z,12.88
2023-03-24T20:20:49.596Z,12.84
2023-03-24T20:23:17.181Z,12.81
2023-03-24T20:25:45.028Z,12.93
2023-03-24T20:28:13.016Z,12.82
2023-03-24T20:30:42.737Z,12.81
2023-03-24T20:33:10.576Z,12.82
2023-03-24T20:35:39.850Z,12.83
2023-03-24T20:38:07.490Z,12.81
2023-03-24T20:40:35.376Z,12.68
2023-03-24T20:43:03.206Z,12.66
2023-03-24T20:45:31.362Z,12.63
2023-03-24T20:47:59.027Z,12.79
2023-03-24T20:50:27.576Z,12.89
2023-03-24T20:52:55.196Z,12.93
2023-03-24T20:55:23.116Z,12.94
2023-03-24T20:57:50.704Z,12.88
2023-03-24T21:00:20.349Z,12.88
2023-03-24T21:02:47.999Z,12.93
2023-03-24T21:05:15.994Z,12.90
2023-03-24T21:07:45.471Z,12.97
2023-03-24T21:10:14.409Z,12.75
2023-03-24T21:12:53.206Z,12.67
2023-03-24T21:15:24.898Z,12.67
2023-03-24T21:17:53.346Z,12.70
2023-03-24T21:20:21.553Z,12.67
2023-03-24T21:22:55.995Z,12.57
2023-03-24T21:25:26.949Z,12.61
2023-03-24T21:27:55.774Z,12.55
2023-03-24T21:30:25.534Z,12.54
2023-03-24T21:32:54.788Z,12.57
2023-03-24T21:35:23.388Z,12.57
2023-03-24T21:37:53.541Z,12.64
2023-03-24T21:40:24.693Z,12.60
2023-03-24T21:42:54.009Z,12.71
2023-03-24T21:45:23.571Z,12.67
2023-03-24T21:47:55.204Z,12.69
2023-03-24T21:50:23.767Z,12.74
2023-03-24T21:52:53.032Z,12.76
2023-03-24T21:55:22.892Z,12.68
2023-03-24T21:57:51.913Z,12.70
2023-03-24T22:00:23.546Z,12.53
2023-03-24T22:02:53.999Z,12.53
2023-03-24T22:05:24.266Z,12.48
2023-03-24T22:07:52.766Z,12.31
2023-03-24T22:10:29.933Z,12.21
2023-03-24T22:12:57.809Z,12.29
2023-03-24T22:15:25.811Z,12.22
2023-03-24T22:17:53.522Z,12.05
2023-03-24T22:20:21.911Z,11.98
2023-03-24T22:22:49.759Z,11.89
2023-03-24T22:25:19.100Z,11.82
2023-03-24T22:27:50.070Z,11.73
2023-03-24T22:30:19.454Z,11.75
2023-03-24T22:32:47.177Z,11.73
2023-03-24T22:35:15.588Z,11.53
2023-03-24T22:37:43.166Z,11.43
2023-03-24T22:40:10.991Z,11.22
2023-03-24T22:42:38.620Z,11.09
2023-03-24T22:45:07.208Z,10.96
2023-03-24T22:47:34.968Z,10.88
2023-03-24T22:50:03.089Z,11.01
2023-03-24T22:52:30.781Z,10.98
2023-03-24T22:54:58.757Z,10.88
2023-03-24T22:57:26.324Z,10.79
2023-03-24T22:59:54.189Z,10.75
2023-03-24T23:02:24.637Z,10.67
2023-03-24T23:04:55.141Z,10.70
2023-03-24T23:07:24.012Z,10.75
2023-03-24T23:09:53.331Z,10.78
2023-03-24T23:12:21.501Z,10.78
2023-03-24T23:14:49.389Z,10.71
2023-03-24T23:17:17.143Z,10.59
2023-03-24T23:19:44.996Z,10.49
2023-03-24T23:22:12.967Z,10.42
2023-03-24T23:24:40.817Z,10.43
2023-03-24T23:27:08.664Z,10.35
2023-03-24T23:29:40.403Z,10.29
2023-03-24T23:32:11.516Z,10.39
2023-03-24T23:34:42.685Z,10.33
2023-03-24T23:37:10.797Z,10.47
2023-03-24T23:39:38.586Z,10.45
2023-03-24T23:42:06.349Z,10.51
2023-03-24T23:44:34.448Z,10.45
2023-03-24T23:47:02.157Z,10.38
2023-03-24T23:49:29.931Z,10.36
2023-03-24T23:51:57.551Z,10.30
2023-03-24T23:54:25.734Z,10.32
2023-03-24T23:56:53.806Z,10.26
2023-03-24T23:59:21.733Z,10.18
